Terminal Aerodrome Forecast
Issued by NWS Sioux Falls, SD

Home | Current Version | Previous Version | Text Only | Print | Product List | Glossary Off
Versions: 1 2 3 4 5 6 7 8 9 10 11 12 13 14 15 16 17 18 19

571
FTUS43 KFSD 262339
TAFFSD
TAF
KFSD 262339Z 2700/2724 07015G23KT 4SM -DZ BR OVC006
     FM270400 07018G25KT P6SM VCSH OVC010
     FM270500 07017G24KT P6SM SHRA OVC015
     FM271200 07020G27KT 4SM SHRA OVC008=

USA.gov is the U.S. government's official web portal to all federal, state and local government web resources and services.